createdAt,value
2018-12-31T00:03:10.935Z,18.439999999999998
2018-12-31T00:06:33.014Z,18.459999999999994
2018-12-31T00:09:55.242Z,18.439999999999998
2018-12-31T00:13:17.394Z,18.439999999999998
2018-12-31T00:16:39.530Z,18.439999999999998
2018-12-31T00:20:01.722Z,18.430000000000007
2018-12-31T00:23:23.964Z,18.439999999999998
2018-12-31T00:26:46.066Z,18.439999999999998
2018-12-31T00:30:08.321Z,18.430000000000007
2018-12-31T00:33:30.487Z,18.430000000000007
2018-12-31T00:36:52.673Z,18.430000000000007
2018-12-31T00:40:14.799Z,18.430000000000007
2018-12-31T00:43:37.022Z,18.430000000000007
2018-12-31T00:46:59.209Z,18.42
2018-12-31T00:50:21.298Z,18.42
2018-12-31T00:53:43.465Z,18.430000000000007
2018-12-31T00:57:05.660Z,18.42
2018-12-31T01:00:27.825Z,18.42
2018-12-31T01:03:50.120Z,18.42
2018-12-31T01:07:12.167Z,18.409999999999997
2018-12-31T01:10:34.450Z,18.409999999999997
2018-12-31T01:13:56.604Z,18.409999999999997
2018-12-31T01:17:18.738Z,18.409999999999997
2018-12-31T01:20:40.883Z,18.409999999999997
2018-12-31T01:24:03.166Z,18.400000000000006
2018-12-31T01:27:25.224Z,18.400000000000006
2018-12-31T01:30:51.924Z,18.400000000000006
2018-12-31T01:34:09.575Z,18.400000000000006
2018-12-31T01:37:31.764Z,18.409999999999997
2018-12-31T01:40:53.940Z,18.400000000000006
2018-12-31T01:44:16.236Z,18.39
2018-12-31T01:47:38.358Z,18.39
2018-12-31T01:51:00.492Z,18.370000000000005
2018-12-31T01:54:22.642Z,18.400000000000006
2018-12-31T01:57:44.804Z,18.370000000000005
2018-12-31T02:01:07.087Z,18.39
2018-12-31T02:04:29.226Z,18.39
2018-12-31T02:07:51.350Z,18.370000000000005
2018-12-31T02:11:13.604Z,18.370000000000005
2018-12-31T02:14:35.714Z,18.370000000000005
2018-12-31T02:17:57.990Z,18.370000000000005
2018-12-31T02:24:42.479Z,18.370000000000005
2018-12-31T02:28:04.559Z,18.370000000000005
2018-12-31T02:31:26.773Z,18.36
2018-12-31T02:34:48.877Z,18.370000000000005
2018-12-31T02:38:11.137Z,18.36
2018-12-31T02:41:33.361Z,18.36
2018-12-31T02:44:55.500Z,18.36
2018-12-31T02:48:17.575Z,18.36
2018-12-31T02:51:39.763Z,18.36
2018-12-31T02:55:02.027Z,18.36
2018-12-31T03:01:46.410Z,18.33
2018-12-31T03:05:08.451Z,18.33
2018-12-31T03:08:30.639Z,18.33
2018-12-31T03:11:52.879Z,18.349999999999994
2018-12-31T03:15:15.048Z,18.349999999999994
2018-12-31T03:18:37.146Z,18.349999999999994
2018-12-31T03:21:59.349Z,18.33
2018-12-31T03:25:21.489Z,18.33
2018-12-31T03:32:05.857Z,18.33
2018-12-31T03:35:28.037Z,18.349999999999994
2018-12-31T03:38:50.219Z,18.33
2018-12-31T03:42:12.391Z,18.33
2018-12-31T03:45:34.647Z,18.33
2018-12-31T03:52:19.050Z,18.33
2018-12-31T03:55:41.191Z,18.319999999999993
2018-12-31T04:02:25.448Z,18.319999999999993
2018-12-31T04:05:47.768Z,18.319999999999993
2018-12-31T04:09:09.880Z,18.310000000000002
2018-12-31T04:12:31.983Z,18.33
2018-12-31T04:15:54.133Z,18.310000000000002
2018-12-31T04:22:38.537Z,18.310000000000002
2018-12-31T04:26:00.658Z,18.310000000000002
2018-12-31T04:29:22.834Z,18.310000000000002
2018-12-31T04:32:45.092Z,18.299999999999997
2018-12-31T04:36:07.180Z,18.310000000000002
2018-12-31T04:39:29.349Z,18.299999999999997
2018-12-31T04:42:51.524Z,18.310000000000002
2018-12-31T04:46:13.802Z,18.299999999999997
2018-12-31T04:56:20.304Z,18.310000000000002
2018-12-31T04:59:42.489Z,18.290000000000006
2018-12-31T05:03:04.587Z,18.290000000000006
2018-12-31T05:06:26.766Z,18.290000000000006
2018-12-31T05:09:49.031Z,18.290000000000006
2018-12-31T05:13:13.706Z,18.28
2018-12-31T05:16:33.335Z,18.290000000000006
2018-12-31T05:23:17.715Z,18.28
2018-12-31T05:26:39.793Z,18.28
2018-12-31T05:33:24.230Z,18.28
2018-12-31T05:36:46.359Z,18.269999999999996
2018-12-31T05:40:08.582Z,18.290000000000006
2018-12-31T05:43:30.712Z,18.28
2018-12-31T05:46:52.841Z,18.290000000000006
2018-12-31T05:53:37.173Z,18.28
2018-12-31T05:56:59.376Z,18.28
2018-12-31T06:03:43.716Z,18.269999999999996
2018-12-31T06:07:05.975Z,18.269999999999996
2018-12-31T06:10:28.047Z,18.269999999999996
2018-12-31T06:13:50.244Z,18.260000000000005
2018-12-31T06:17:12.430Z,18.260000000000005
2018-12-31T06:23:56.826Z,18.260000000000005
2018-12-31T06:27:18.988Z,18.269999999999996
2018-12-31T06:30:42.028Z,18.269999999999996
2018-12-31T06:37:25.580Z,18.260000000000005
2018-12-31T06:47:32.031Z,18.25
2018-12-31T06:50:54.131Z,18.260000000000005
2018-12-31T06:54:16.452Z,18.260000000000005
2018-12-31T06:57:38.483Z,18.25
2018-12-31T07:01:00.690Z,18.260000000000005
2018-12-31T07:04:22.924Z,18.25
2018-12-31T07:07:44.993Z,18.260000000000005
2018-12-31T07:14:29.439Z,18.260000000000005
2018-12-31T07:17:51.570Z,18.269999999999996
2018-12-31T07:21:13.694Z,18.260000000000005
2018-12-31T07:24:35.888Z,18.269999999999996
2018-12-31T07:27:58.058Z,18.260000000000005
2018-12-31T07:31:20.344Z,18.260000000000005
2018-12-31T07:34:42.529Z,18.260000000000005
2018-12-31T07:38:04.635Z,18.260000000000005
2018-12-31T07:41:26.748Z,18.260000000000005
2018-12-31T07:44:48.985Z,18.260000000000005
2018-12-31T07:48:11.101Z,18.260000000000005
2018-12-31T07:54:55.525Z,18.269999999999996
2018-12-31T07:58:17.611Z,18.260000000000005
2018-12-31T08:01:39.773Z,18.269999999999996
2018-12-31T08:05:01.978Z,18.260000000000005
2018-12-31T08:08:24.167Z,18.269999999999996
2018-12-31T08:11:46.437Z,18.269999999999996
2018-12-31T08:15:08.567Z,18.269999999999996
2018-12-31T08:18:30.653Z,18.28
2018-12-31T08:21:52.851Z,18.28
2018-12-31T08:25:15.028Z,18.28
2018-12-31T08:28:37.510Z,18.299999999999997
2018-12-31T08:31:59.436Z,18.28
2018-12-31T08:35:21.601Z,18.28
2018-12-31T08:38:43.726Z,18.290000000000006
2018-12-31T08:42:05.903Z,18.299999999999997
2018-12-31T08:45:28.059Z,18.310000000000002
2018-12-31T08:48:50.222Z,18.310000000000002
2018-12-31T08:52:12.479Z,18.310000000000002
2018-12-31T08:55:34.651Z,18.33
2018-12-31T08:58:56.731Z,18.319999999999993
2018-12-31T09:05:41.120Z,18.349999999999994
2018-12-31T09:09:03.363Z,18.33
2018-12-31T09:12:25.436Z,18.349999999999994
2018-12-31T09:15:47.625Z,18.33
2018-12-31T09:19:09.769Z,18.36
2018-12-31T09:22:31.981Z,18.36
2018-12-31T09:29:16.452Z,18.36
2018-12-31T09:32:38.462Z,18.36
2018-12-31T09:36:00.745Z,18.36
2018-12-31T09:39:22.855Z,18.370000000000005
2018-12-31T09:46:07.186Z,18.370000000000005
2018-12-31T09:49:29.410Z,18.370000000000005
2018-12-31T09:52:51.589Z,18.39
2018-12-31T09:56:13.704Z,18.409999999999997
2018-12-31T09:59:35.870Z,18.409999999999997
2018-12-31T10:02:58.016Z,18.42
2018-12-31T10:06:20.268Z,18.42
2018-12-31T10:09:42.374Z,18.42
2018-12-31T10:13:04.658Z,18.42
2018-12-31T10:16:26.837Z,18.42
2018-12-31T10:19:48.897Z,18.430000000000007
2018-12-31T10:23:11.088Z,18.42
2018-12-31T10:26:33.276Z,18.430000000000007
2018-12-31T10:29:55.515Z,18.42
2018-12-31T10:33:17.677Z,18.42
2018-12-31T10:36:39.781Z,18.42
2018-12-31T10:40:02.050Z,18.430000000000007
2018-12-31T10:43:24.234Z,18.430000000000007
2018-12-31T10:46:46.352Z,18.439999999999998
2018-12-31T10:50:08.536Z,18.42
2018-12-31T10:53:30.640Z,18.42
2018-12-31T10:56:52.906Z,18.430000000000007
2018-12-31T11:00:14.972Z,18.430000000000007
2018-12-31T11:06:59.329Z,18.439999999999998
2018-12-31T11:10:21.598Z,18.439999999999998
2018-12-31T11:13:43.691Z,18.439999999999998
2018-12-31T11:17:05.872Z,18.439999999999998
2018-12-31T11:20:28.021Z,18.439999999999998
2018-12-31T11:23:50.199Z,18.430000000000007
2018-12-31T11:27:12.480Z,18.430000000000007
2018-12-31T11:30:34.618Z,18.42
2018-12-31T11:37:18.912Z,18.430000000000007
2018-12-31T11:40:41.086Z,18.430000000000007
2018-12-31T11:44:03.246Z,18.42
2018-12-31T11:47:25.424Z,18.409999999999997
2018-12-31T11:50:47.584Z,18.409999999999997
2018-12-31T11:54:09.766Z,18.42
2018-12-31T11:57:31.959Z,18.430000000000007
2018-12-31T12:00:54.198Z,18.430000000000007
2018-12-31T12:04:16.550Z,18.42
2018-12-31T12:07:38.623Z,18.42
2018-12-31T12:11:00.635Z,18.409999999999997
2018-12-31T12:14:22.810Z,18.42
2018-12-31T12:17:44.989Z,18.42
2018-12-31T12:21:07.223Z,18.430000000000007
2018-12-31T12:24:29.385Z,18.439999999999998
2018-12-31T12:27:51.514Z,18.459999999999994
2018-12-31T12:31:13.670Z,18.439999999999998
2018-12-31T12:34:35.837Z,18.439999999999998
2018-12-31T12:37:58.120Z,18.459999999999994
2018-12-31T12:41:20.181Z,18.47
2018-12-31T12:44:42.353Z,18.47
2018-12-31T12:48:04.552Z,18.489999999999995
2018-12-31T12:51:26.727Z,18.47
2018-12-31T12:54:48.882Z,18.47
2018-12-31T13:01:33.269Z,18.47
2018-12-31T13:04:55.425Z,18.47
2018-12-31T13:08:17.654Z,18.489999999999995
2018-12-31T13:11:39.761Z,18.47
2018-12-31T13:15:01.925Z,18.47
2018-12-31T13:18:24.125Z,18.5
2018-12-31T13:21:46.333Z,18.5
2018-12-31T13:25:08.449Z,18.489999999999995
2018-12-31T13:31:52.860Z,18.5
2018-12-31T13:35:14.965Z,18.5
2018-12-31T13:41:59.317Z,18.489999999999995
2018-12-31T13:45:21.563Z,18.510000000000005
2018-12-31T13:48:43.965Z,18.5
2018-12-31T13:52:05.828Z,18.5
2018-12-31T13:55:28.078Z,18.5
2018-12-31T14:02:12.449Z,18.5
2018-12-31T14:05:34.595Z,18.5
2018-12-31T14:12:18.878Z,18.5
2018-12-31T14:15:41.072Z,18.489999999999995
2018-12-31T14:19:03.241Z,18.5
2018-12-31T14:22:25.423Z,18.489999999999995
2018-12-31T14:25:47.568Z,18.489999999999995
2018-12-31T14:29:09.825Z,18.5
2018-12-31T14:32:31.920Z,18.5
2018-12-31T14:35:54.108Z,18.5
2018-12-31T14:39:16.401Z,18.5
2018-12-31T14:42:38.515Z,18.5
2018-12-31T14:46:00.612Z,18.510000000000005
2018-12-31T14:49:22.853Z,18.519999999999996
2018-12-31T14:52:45.074Z,18.519999999999996
2018-12-31T14:56:07.212Z,18.510000000000005
2018-12-31T14:59:29.321Z,18.5
2018-12-31T15:02:51.502Z,18.510000000000005
2018-12-31T15:06:13.762Z,18.519999999999996
2018-12-31T15:09:35.919Z,18.519999999999996
2018-12-31T15:12:58.025Z,18.510000000000005
2018-12-31T15:16:20.254Z,18.5
2018-12-31T15:23:04.680Z,18.5
2018-12-31T15:26:26.793Z,18.5
2018-12-31T15:29:48.900Z,18.5
2018-12-31T15:33:11.096Z,18.5
2018-12-31T15:36:33.246Z,18.5
2018-12-31T15:43:17.644Z,18.5
2018-12-31T15:53:24.127Z,18.5
2018-12-31T15:56:46.419Z,18.5
2018-12-31T16:00:08.544Z,18.489999999999995
2018-12-31T16:03:30.723Z,18.5
2018-12-31T16:06:52.899Z,18.489999999999995
2018-12-31T16:10:15.000Z,18.47
2018-12-31T16:13:37.261Z,18.47
2018-12-31T16:16:59.419Z,18.47
2018-12-31T16:20:21.527Z,18.47
2018-12-31T16:23:43.685Z,18.489999999999995
2018-12-31T16:27:05.939Z,18.47
2018-12-31T16:30:28.122Z,18.489999999999995
2018-12-31T16:33:50.292Z,18.47
2018-12-31T16:37:12.404Z,18.47
2018-12-31T16:40:34.572Z,18.47
2018-12-31T16:43:56.877Z,18.47
2018-12-31T16:47:18.931Z,18.489999999999995
2018-12-31T16:50:41.103Z,18.47
2018-12-31T16:54:03.332Z,18.47
2018-12-31T16:57:25.470Z,18.47
2018-12-31T17:00:47.644Z,18.47
2018-12-31T17:04:09.879Z,18.47
2018-12-31T17:07:31.966Z,18.47
2018-12-31T17:10:54.212Z,18.47
2018-12-31T17:14:16.344Z,18.47
2018-12-31T17:17:38.519Z,18.47
2018-12-31T17:21:00.752Z,18.47
2018-12-31T17:24:22.854Z,18.47
2018-12-31T17:27:45.100Z,18.47
2018-12-31T17:31:07.284Z,18.47
2018-12-31T17:34:29.362Z,18.47
2018-12-31T17:37:51.547Z,18.47
2018-12-31T17:41:13.722Z,18.47
2018-12-31T17:44:35.958Z,18.47
2018-12-31T17:47:58.059Z,18.47
2018-12-31T17:51:20.240Z,18.47
2018-12-31T17:54:42.423Z,18.47
2018-12-31T17:58:04.627Z,18.47
2018-12-31T18:04:48.953Z,18.47
2018-12-31T18:08:11.112Z,18.459999999999994
2018-12-31T18:14:55.483Z,18.489999999999995
2018-12-31T18:18:17.647Z,18.47
2018-12-31T18:21:39.834Z,18.47
2018-12-31T18:25:02.015Z,18.47
2018-12-31T18:28:24.176Z,18.489999999999995
2018-12-31T18:31:46.431Z,18.47
2018-12-31T18:35:08.595Z,18.47
2018-12-31T18:38:30.738Z,18.47
2018-12-31T18:45:15.109Z,18.47
2018-12-31T18:55:21.600Z,18.47
2018-12-31T18:58:43.817Z,18.489999999999995
2018-12-31T19:05:28.106Z,18.47
2018-12-31T19:08:50.335Z,18.47
2018-12-31T19:25:41.237Z,18.47
2018-12-31T19:29:03.387Z,18.47
2018-12-31T19:35:47.760Z,18.47
2018-12-31T19:39:09.850Z,18.47
2018-12-31T19:45:56.319Z,18.47
2018-12-31T19:49:16.371Z,18.47
2018-12-31T19:56:00.718Z,18.47
2018-12-31T19:59:22.974Z,18.47
2018-12-31T20:06:07.329Z,18.459999999999994
2018-12-31T20:09:29.528Z,18.459999999999994
2018-12-31T20:16:13.854Z,18.459999999999994
2018-12-31T20:19:35.947Z,18.47
2018-12-31T20:26:20.389Z,18.47
2018-12-31T20:29:42.599Z,18.47
2018-12-31T20:36:26.834Z,18.459999999999994
2018-12-31T20:43:11.254Z,18.47
2018-12-31T20:46:33.353Z,18.47
2018-12-31T20:53:17.706Z,18.459999999999994
2018-12-31T20:56:39.952Z,18.47
2018-12-31T21:00:02.164Z,18.459999999999994
2018-12-31T21:03:24.233Z,18.459999999999994
2018-12-31T21:06:46.531Z,18.47
2018-12-31T21:10:08.574Z,18.47
2018-12-31T21:13:30.784Z,18.459999999999994
2018-12-31T21:16:53.034Z,18.47
2018-12-31T21:20:15.132Z,18.47
2018-12-31T21:26:59.542Z,18.459999999999994
2018-12-31T21:30:21.642Z,18.459999999999994
2018-12-31T21:33:43.850Z,18.459999999999994
2018-12-31T21:37:06.058Z,18.459999999999994
2018-12-31T21:40:28.187Z,18.439999999999998
2018-12-31T21:47:12.589Z,18.459999999999994
2018-12-31T21:50:34.791Z,18.439999999999998
2018-12-31T21:57:19.041Z,18.439999999999998
2018-12-31T22:00:41.206Z,18.459999999999994
2018-12-31T22:04:03.404Z,18.439999999999998
2018-12-31T22:07:25.632Z,18.459999999999994
2018-12-31T22:10:47.730Z,18.459999999999994
2018-12-31T22:20:54.273Z,18.459999999999994
2018-12-31T22:27:38.614Z,18.459999999999994
2018-12-31T22:31:00.842Z,18.459999999999994
2018-12-31T22:37:45.259Z,18.459999999999994
2018-12-31T22:41:07.315Z,18.439999999999998
2018-12-31T22:47:51.667Z,18.439999999999998
2018-12-31T22:51:13.850Z,18.459999999999994
2018-12-31T22:57:58.203Z,18.459999999999994
2018-12-31T23:08:04.736Z,18.459999999999994
2018-12-31T23:14:49.130Z,18.439999999999998
2018-12-31T23:21:33.436Z,18.439999999999998
2018-12-31T23:28:17.875Z,18.439999999999998
2018-12-31T23:31:40.017Z,18.439999999999998
2018-12-31T23:35:02.151Z,18.439999999999998
2018-12-31T23:38:25.705Z,18.439999999999998
2018-12-31T23:41:46.477Z,18.439999999999998
2018-12-31T23:48:30.835Z,18.439999999999998
2018-12-31T23:51:53.121Z,18.439999999999998
2018-12-31T23:55:15.208Z,18.439999999999998
2018-12-31T23:58:37.362Z,18.439999999999998
